sensor_id;sensor_type;location;lat;lon;timestamp;temperature;humidity
13409;DHT22;6775;49.574;11.170;2023-04-15T00:01:49;6.60;99.90
13409;DHT22;6775;49.574;11.170;2023-04-15T00:04:18;6.60;99.90
13409;DHT22;6775;49.574;11.170;2023-04-15T00:06:49;6.60;99.90
13409;DHT22;6775;49.574;11.170;2023-04-15T00:09:18;6.60;99.90
13409;DHT22;6775;49.574;11.170;2023-04-15T00:11:46;6.60;99.90
13409;DHT22;6775;49.574;11.170;2023-04-15T00:14:14;6.60;99.90
13409;DHT22;6775;49.574;11.170;2023-04-15T00:16:42;6.70;99.90
13409;DHT22;6775;49.574;11.170;2023-04-15T00:19:10;6.70;99.90
13409;DHT22;6775;49.574;11.170;2023-04-15T00:21:39;6.60;99.90
13409;DHT22;6775;49.574;11.170;2023-04-15T00:24:07;6.60;99.90
13409;DHT22;6775;49.574;11.170;2023-04-15T00:26:35;6.70;99.90
13409;DHT22;6775;49.574;11.170;2023-04-15T00:29:03;6.70;99.90
13409;DHT22;6775;49.574;11.170;2023-04-15T00:31:31;6.70;99.90
13409;DHT22;6775;49.574;11.170;2023-04-15T00:33:58;6.70;99.90
13409;DHT22;6775;49.574;11.170;2023-04-15T00:36:28;6.70;99.90
13409;DHT22;6775;49.574;11.170;2023-04-15T00:38:57;6.70;99.90
13409;DHT22;6775;49.574;11.170;2023-04-15T00:41:25;6.70;99.90
13409;DHT22;6775;49.574;11.170;2023-04-15T00:43:53;6.70;99.90
13409;DHT22;6775;49.574;11.170;2023-04-15T00:46:21;6.70;99.90
13409;DHT22;6775;49.574;11.170;2023-04-15T00:48:50;6.70;99.90
13409;DHT22;6775;49.574;11.170;2023-04-15T00:51:18;6.70;99.90
13409;DHT22;6775;49.574;11.170;2023-04-15T00:53:46;6.70;99.90
13409;DHT22;6775;49.574;11.170;2023-04-15T00:56:15;6.70;99.90
13409;DHT22;6775;49.574;11.170;2023-04-15T00:58:43;6.70;99.90
13409;DHT22;6775;49.574;11.170;2023-04-15T01:01:11;6.60;99.90
13409;DHT22;6775;49.574;11.170;2023-04-15T01:03:39;6.70;99.90
13409;DHT22;6775;49.574;11.170;2023-04-15T01:06:07;6.60;99.90
13409;DHT22;6775;49.574;11.170;2023-04-15T01:08:35;6.60;99.90
13409;DHT22;6775;49.574;11.170;2023-04-15T01:11:02;6.60;99.90
13409;DHT22;6775;49.574;11.170;2023-04-15T01:13:32;6.60;99.90
13409;DHT22;6775;49.574;11.170;2023-04-15T01:16:00;6.60;99.90
13409;DHT22;6775;49.574;11.170;2023-04-15T01:18:29;6.60;99.90
13409;DHT22;6775;49.574;11.170;2023-04-15T01:20:59;6.60;99.90
13409;DHT22;6775;49.574;11.170;2023-04-15T01:23:29;6.60;99.90
13409;DHT22;6775;49.574;11.170;2023-04-15T01:25:58;6.60;99.90
13409;DHT22;6775;49.574;11.170;2023-04-15T01:28:26;6.60;99.90
13409;DHT22;6775;49.574;11.170;2023-04-15T01:31:07;6.60;99.90
13409;DHT22;6775;49.574;11.170;2023-04-15T01:33:35;6.60;99.90
13409;DHT22;6775;49.574;11.170;2023-04-15T01:36:04;6.60;99.90
13409;DHT22;6775;49.574;11.170;2023-04-15T01:38:34;6.50;99.90
13409;DHT22;6775;49.574;11.170;2023-04-15T01:41:03;6.50;99.90
13409;DHT22;6775;49.574;11.170;2023-04-15T01:43:33;6.50;99.90
13409;DHT22;6775;49.574;11.170;2023-04-15T01:46:01;6.50;99.90
13409;DHT22;6775;49.574;11.170;2023-04-15T01:48:29;6.50;99.90
13409;DHT22;6775;49.574;11.170;2023-04-15T01:50:57;6.50;99.90
13409;DHT22;6775;49.574;11.170;2023-04-15T01:53:25;6.50;99.90
13409;DHT22;6775;49.574;11.170;2023-04-15T01:55:53;6.50;99.90
13409;DHT22;6775;49.574;11.170;2023-04-15T01:58:23;6.50;99.90
13409;DHT22;6775;49.574;11.170;2023-04-15T02:00:50;6.50;99.90
13409;DHT22;6775;49.574;11.170;2023-04-15T02:03:19;6.50;99.90
13409;DHT22;6775;49.574;11.170;2023-04-15T02:05:47;6.50;99.90
13409;DHT22;6775;49.574;11.170;2023-04-15T02:08:16;6.50;99.90
13409;DHT22;6775;49.574;11.170;2023-04-15T02:10:44;6.50;99.90
13409;DHT22;6775;49.574;11.170;2023-04-15T02:13:12;6.50;99.90
13409;DHT22;6775;49.574;11.170;2023-04-15T02:15:46;6.50;99.90
13409;DHT22;6775;49.574;11.170;2023-04-15T02:18:14;6.50;99.90
13409;DHT22;6775;49.574;11.170;2023-04-15T02:20:42;6.50;99.90
13409;DHT22;6775;49.574;11.170;2023-04-15T02:23:10;6.50;99.90
13409;DHT22;6775;49.574;11.170;2023-04-15T02:25:38;6.50;99.90
13409;DHT22;6775;49.574;11.170;2023-04-15T02:28:06;6.50;99.90
13409;DHT22;6775;49.574;11.170;2023-04-15T02:30:33;6.40;99.90
13409;DHT22;6775;49.574;11.170;2023-04-15T02:33:03;6.40;99.90
13409;DHT22;6775;49.574;11.170;2023-04-15T02:35:31;6.40;99.90
13409;DHT22;6775;49.574;11.170;2023-04-15T02:37:58;6.40;99.90
13409;DHT22;6775;49.574;11.170;2023-04-15T02:40:26;6.40;99.90
13409;DHT22;6775;49.574;11.170;2023-04-15T02:42:54;6.40;99.90
13409;DHT22;6775;49.574;11.170;2023-04-15T02:45:23;6.40;99.90
13409;DHT22;6775;49.574;11.170;2023-04-15T02:47:53;6.40;99.90
13409;DHT22;6775;49.574;11.170;2023-04-15T02:50:22;6.40;99.90
13409;DHT22;6775;49.574;11.170;2023-04-15T02:52:51;6.40;99.90
13409;DHT22;6775;49.574;11.170;2023-04-15T02:55:19;6.40;99.90
13409;DHT22;6775;49.574;11.170;2023-04-15T02:57:47;6.40;99.90
13409;DHT22;6775;49.574;11.170;2023-04-15T03:00:15;6.40;99.90
13409;DHT22;6775;49.574;11.170;2023-04-15T03:02:44;6.40;99.90
13409;DHT22;6775;49.574;11.170;2023-04-15T03:05:13;6.40;99.90
13409;DHT22;6775;49.574;11.170;2023-04-15T03:07:42;6.50;99.90
13409;DHT22;6775;49.574;11.170;2023-04-15T03:10:10;6.50;99.90
13409;DHT22;6775;49.574;11.170;2023-04-15T03:12:38;6.50;99.90
13409;DHT22;6775;49.574;11.170;2023-04-15T03:15:07;6.50;99.90
13409;DHT22;6775;49.574;11.170;2023-04-15T03:17:35;6.50;99.90
13409;DHT22;6775;49.574;11.170;2023-04-15T03:20:04;6.50;99.90
13409;DHT22;6775;49.574;11.170;2023-04-15T03:22:32;6.40;99.90
13409;DHT22;6775;49.574;11.170;2023-04-15T03:25:02;6.40;99.90
13409;DHT22;6775;49.574;11.170;2023-04-15T03:27:29;6.40;99.90
13409;DHT22;6775;49.574;11.170;2023-04-15T03:29:57;6.40;99.90
13409;DHT22;6775;49.574;11.170;2023-04-15T03:32:25;6.40;99.90
13409;DHT22;6775;49.574;11.170;2023-04-15T03:34:53;6.40;99.90
13409;DHT22;6775;49.574;11.170;2023-04-15T03:37:21;6.40;99.90
13409;DHT22;6775;49.574;11.170;2023-04-15T03:39:48;6.40;99.90
13409;DHT22;6775;49.574;11.170;2023-04-15T03:42:17;6.40;99.90
13409;DHT22;6775;49.574;11.170;2023-04-15T03:44:45;6.30;99.90
13409;DHT22;6775;49.574;11.170;2023-04-15T03:47:13;6.30;99.90
13409;DHT22;6775;49.574;11.170;2023-04-15T03:49:41;6.30;99.90
13409;DHT22;6775;49.574;11.170;2023-04-15T03:52:09;6.30;99.90
13409;DHT22;6775;49.574;11.170;2023-04-15T03:54:37;6.40;99.90
13409;DHT22;6775;49.574;11.170;2023-04-15T03:57:05;6.30;99.90
13409;DHT22;6775;49.574;11.170;2023-04-15T03:59:34;6.30;99.90
13409;DHT22;6775;49.574;11.170;2023-04-15T04:02:02;6.40;99.90
13409;DHT22;6775;49.574;11.170;2023-04-15T04:04:30;6.40;99.90
13409;DHT22;6775;49.574;11.170;2023-04-15T04:06:58;6.30;99.90
13409;DHT22;6775;49.574;11.170;2023-04-15T04:09:26;6.30;99.90
13409;DHT22;6775;49.574;11.170;2023-04-15T04:11:54;6.30;99.90
13409;DHT22;6775;49.574;11.170;2023-04-15T04:14:22;6.30;99.90
13409;DHT22;6775;49.574;11.170;2023-04-15T04:16:56;6.30;99.90
13409;DHT22;6775;49.574;11.170;2023-04-15T04:19:24;6.30;99.90
13409;DHT22;6775;49.574;11.170;2023-04-15T04:21:51;6.30;99.90
13409;DHT22;6775;49.574;11.170;2023-04-15T04:24:19;6.30;99.90
13409;DHT22;6775;49.574;11.170;2023-04-15T04:26:47;6.40;99.90
13409;DHT22;6775;49.574;11.170;2023-04-15T04:29:15;6.40;99.90
13409;DHT22;6775;49.574;11.170;2023-04-15T04:31:43;6.40;99.90
13409;DHT22;6775;49.574;11.170;2023-04-15T04:34:12;6.40;99.90
13409;DHT22;6775;49.574;11.170;2023-04-15T04:36:40;6.50;99.90
13409;DHT22;6775;49.574;11.170;2023-04-15T04:39:07;6.50;99.90
13409;DHT22;6775;49.574;11.170;2023-04-15T04:41:35;6.50;99.90
13409;DHT22;6775;49.574;11.170;2023-04-15T04:44:03;6.50;99.90
13409;DHT22;6775;49.574;11.170;2023-04-15T04:46:31;6.50;99.90
13409;DHT22;6775;49.574;11.170;2023-04-15T04:48:59;6.50;99.90
13409;DHT22;6775;49.574;11.170;2023-04-15T04:51:28;6.50;99.90
13409;DHT22;6775;49.574;11.170;2023-04-15T04:53:56;6.60;99.90
13409;DHT22;6775;49.574;11.170;2023-04-15T04:56:24;6.70;99.90
13409;DHT22;6775;49.574;11.170;2023-04-15T04:58:52;6.70;99.90
13409;DHT22;6775;49.574;11.170;2023-04-15T05:01:20;6.80;99.90
13409;DHT22;6775;49.574;11.170;2023-04-15T05:03:48;6.80;99.90
13409;DHT22;6775;49.574;11.170;2023-04-15T05:06:16;6.80;99.90
13409;DHT22;6775;49.574;11.170;2023-04-15T05:08:45;6.80;99.90
13409;DHT22;6775;49.574;11.170;2023-04-15T05:11:13;6.80;99.90
13409;DHT22;6775;49.574;11.170;2023-04-15T05:13:41;6.80;99.90
13409;DHT22;6775;49.574;11.170;2023-04-15T05:16:08;6.80;99.90
13409;DHT22;6775;49.574;11.170;2023-04-15T05:18:36;6.80;99.90
13409;DHT22;6775;49.574;11.170;2023-04-15T05:21:04;6.70;99.90
13409;DHT22;6775;49.574;11.170;2023-04-15T05:23:32;6.70;99.90
13409;DHT22;6775;49.574;11.170;2023-04-15T05:26:02;6.70;99.90
13409;DHT22;6775;49.574;11.170;2023-04-15T05:28:29;6.80;99.90
13409;DHT22;6775;49.574;11.170;2023-04-15T05:30:57;6.70;99.90
13409;DHT22;6775;49.574;11.170;2023-04-15T05:33:25;6.70;99.90
13409;DHT22;6775;49.574;11.170;2023-04-15T05:35:54;6.80;99.90
13409;DHT22;6775;49.574;11.170;2023-04-15T05:38:21;6.70;99.90
13409;DHT22;6775;49.574;11.170;2023-04-15T05:40:49;6.70;99.90
13409;DHT22;6775;49.574;11.170;2023-04-15T05:43:18;6.70;99.90
13409;DHT22;6775;49.574;11.170;2023-04-15T05:45:47;6.70;99.90
13409;DHT22;6775;49.574;11.170;2023-04-15T05:48:14;6.70;99.90
13409;DHT22;6775;49.574;11.170;2023-04-15T05:50:42;6.70;99.90
13409;DHT22;6775;49.574;11.170;2023-04-15T05:53:10;6.80;99.90
13409;DHT22;6775;49.574;11.170;2023-04-15T05:55:38;6.80;99.90
13409;DHT22;6775;49.574;11.170;2023-04-15T05:58:06;6.80;99.90
13409;DHT22;6775;49.574;11.170;2023-04-15T06:00:35;6.80;99.90
13409;DHT22;6775;49.574;11.170;2023-04-15T06:03:04;6.80;99.90
13409;DHT22;6775;49.574;11.170;2023-04-15T06:05:32;6.80;99.90
13409;DHT22;6775;49.574;11.170;2023-04-15T06:08:00;6.80;99.90
13409;DHT22;6775;49.574;11.170;2023-04-15T06:10:28;6.80;99.90
13409;DHT22;6775;49.574;11.170;2023-04-15T06:12:56;6.80;99.90
13409;DHT22;6775;49.574;11.170;2023-04-15T06:15:24;6.80;99.90
13409;DHT22;6775;49.574;11.170;2023-04-15T06:17:53;6.80;99.90
13409;DHT22;6775;49.574;11.170;2023-04-15T06:20:21;6.80;99.90
13409;DHT22;6775;49.574;11.170;2023-04-15T06:22:49;6.80;99.90
13409;DHT22;6775;49.574;11.170;2023-04-15T06:25:17;6.90;99.90
13409;DHT22;6775;49.574;11.170;2023-04-15T06:27:45;6.90;99.90
13409;DHT22;6775;49.574;11.170;2023-04-15T06:30:13;6.90;99.90
13409;DHT22;6775;49.574;11.170;2023-04-15T06:32:41;6.90;99.90
13409;DHT22;6775;49.574;11.170;2023-04-15T06:35:12;6.90;99.90
13409;DHT22;6775;49.574;11.170;2023-04-15T06:37:41;6.90;99.90
13409;DHT22;6775;49.574;11.170;2023-04-15T06:40:09;7.00;99.90
13409;DHT22;6775;49.574;11.170;2023-04-15T06:42:37;7.00;99.90
13409;DHT22;6775;49.574;11.170;2023-04-15T06:45:06;7.00;99.90
13409;DHT22;6775;49.574;11.170;2023-04-15T06:47:34;7.00;99.90
13409;DHT22;6775;49.574;11.170;2023-04-15T06:50:02;7.00;99.90
13409;DHT22;6775;49.574;11.170;2023-04-15T06:52:32;7.00;99.90
13409;DHT22;6775;49.574;11.170;2023-04-15T06:55:00;7.10;99.90
13409;DHT22;6775;49.574;11.170;2023-04-15T06:57:28;7.10;99.90
13409;DHT22;6775;49.574;11.170;2023-04-15T06:59:58;7.10;99.90
13409;DHT22;6775;49.574;11.170;2023-04-15T07:02:26;7.20;99.90
13409;DHT22;6775;49.574;11.170;2023-04-15T07:04:54;7.20;99.90
13409;DHT22;6775;49.574;11.170;2023-04-15T07:07:22;7.30;99.90
13409;DHT22;6775;49.574;11.170;2023-04-15T07:09:52;7.40;99.90
13409;DHT22;6775;49.574;11.170;2023-04-15T07:12:20;7.40;99.90
13409;DHT22;6775;49.574;11.170;2023-04-15T07:14:48;7.50;99.90
13409;DHT22;6775;49.574;11.170;2023-04-15T07:17:16;7.60;99.90
13409;DHT22;6775;49.574;11.170;2023-04-15T07:19:43;7.60;99.90
13409;DHT22;6775;49.574;11.170;2023-04-15T07:22:12;7.70;99.90
13409;DHT22;6775;49.574;11.170;2023-04-15T07:24:39;7.70;99.90
13409;DHT22;6775;49.574;11.170;2023-04-15T07:27:09;7.80;99.90
13409;DHT22;6775;49.574;11.170;2023-04-15T07:29:37;7.80;99.90
13409;DHT22;6775;49.574;11.170;2023-04-15T07:32:05;7.90;99.90
13409;DHT22;6775;49.574;11.170;2023-04-15T07:34:32;7.90;99.90
13409;DHT22;6775;49.574;11.170;2023-04-15T07:37:00;7.90;99.90
13409;DHT22;6775;49.574;11.170;2023-04-15T07:39:29;7.90;99.90
13409;DHT22;6775;49.574;11.170;2023-04-15T07:41:57;8.00;99.90
13409;DHT22;6775;49.574;11.170;2023-04-15T07:44:27;8.00;99.90
13409;DHT22;6775;49.574;11.170;2023-04-15T07:46:55;8.00;99.90
13409;DHT22;6775;49.574;11.170;2023-04-15T07:49:23;8.10;99.90
13409;DHT22;6775;49.574;11.170;2023-04-15T07:51:51;8.10;99.90
13409;DHT22;6775;49.574;11.170;2023-04-15T07:54:18;8.10;99.90
13409;DHT22;6775;49.574;11.170;2023-04-15T07:56:46;8.20;99.90
13409;DHT22;6775;49.574;11.170;2023-04-15T07:59:15;8.20;99.90
13409;DHT22;6775;49.574;11.170;2023-04-15T08:01:45;8.20;99.90
13409;DHT22;6775;49.574;11.170;2023-04-15T08:04:12;8.30;99.90
13409;DHT22;6775;49.574;11.170;2023-04-15T08:06:41;8.30;99.90
13409;DHT22;6775;49.574;11.170;2023-04-15T08:09:09;8.30;99.90
13409;DHT22;6775;49.574;11.170;2023-04-15T08:11:37;8.30;99.90
13409;DHT22;6775;49.574;11.170;2023-04-15T08:14:05;8.30;99.90
13409;DHT22;6775;49.574;11.170;2023-04-15T08:16:33;8.30;99.90
13409;DHT22;6775;49.574;11.170;2023-04-15T08:19:02;8.20;99.90
13409;DHT22;6775;49.574;11.170;2023-04-15T08:21:31;8.20;99.90
13409;DHT22;6775;49.574;11.170;2023-04-15T08:23:59;8.20;99.90
13409;DHT22;6775;49.574;11.170;2023-04-15T08:26:27;8.10;99.90
13409;DHT22;6775;49.574;11.170;2023-04-15T08:28:55;8.10;99.90
13409;DHT22;6775;49.574;11.170;2023-04-15T08:31:25;8.00;99.90
13409;DHT22;6775;49.574;11.170;2023-04-15T08:33:53;8.00;99.90
13409;DHT22;6775;49.574;11.170;2023-04-15T08:36:23;7.90;99.90
13409;DHT22;6775;49.574;11.170;2023-04-15T08:38:52;8.00;99.90
13409;DHT22;6775;49.574;11.170;2023-04-15T08:41:21;8.00;99.90
13409;DHT22;6775;49.574;11.170;2023-04-15T08:43:57;8.00;99.90
13409;DHT22;6775;49.574;11.170;2023-04-15T08:46:25;8.00;99.90
13409;DHT22;6775;49.574;11.170;2023-04-15T08:48:56;7.90;99.90
13409;DHT22;6775;49.574;11.170;2023-04-15T08:51:27;7.90;99.90
13409;DHT22;6775;49.574;11.170;2023-04-15T08:53:55;7.90;99.90
13409;DHT22;6775;49.574;11.170;2023-04-15T08:56:24;7.80;99.90
13409;DHT22;6775;49.574;11.170;2023-04-15T08:58:53;7.80;99.90
13409;DHT22;6775;49.574;11.170;2023-04-15T09:01:21;7.70;99.90
13409;DHT22;6775;49.574;11.170;2023-04-15T09:03:50;7.70;99.90
13409;DHT22;6775;49.574;11.170;2023-04-15T09:06:20;7.60;99.90
13409;DHT22;6775;49.574;11.170;2023-04-15T09:08:50;7.60;99.90
13409;DHT22;6775;49.574;11.170;2023-04-15T09:11:18;7.60;99.90
13409;DHT22;6775;49.574;11.170;2023-04-15T09:13:48;7.60;99.90
13409;DHT22;6775;49.574;11.170;2023-04-15T09:16:16;7.50;99.90
13409;DHT22;6775;49.574;11.170;2023-04-15T09:18:44;7.50;99.90
13409;DHT22;6775;49.574;11.170;2023-04-15T09:21:13;7.50;99.90
13409;DHT22;6775;49.574;11.170;2023-04-15T09:23:55;7.40;99.90
13409;DHT22;6775;49.574;11.170;2023-04-15T09:26:33;7.50;99.90
13409;DHT22;6775;49.574;11.170;2023-04-15T09:29:03;7.40;99.90
13409;DHT22;6775;49.574;11.170;2023-04-15T09:31:32;7.30;99.90
13409;DHT22;6775;49.574;11.170;2023-04-15T09:34:00;7.30;99.90
13409;DHT22;6775;49.574;11.170;2023-04-15T09:36:28;7.30;99.90
13409;DHT22;6775;49.574;11.170;2023-04-15T09:38:58;7.20;99.90
13409;DHT22;6775;49.574;11.170;2023-04-15T09:41:27;7.20;99.90
13409;DHT22;6775;49.574;11.170;2023-04-15T09:43:55;7.20;99.90
13409;DHT22;6775;49.574;11.170;2023-04-15T09:46:40;7.30;99.90
13409;DHT22;6775;49.574;11.170;2023-04-15T09:49:09;7.30;99.90
13409;DHT22;6775;49.574;11.170;2023-04-15T09:51:38;7.30;99.90
13409;DHT22;6775;49.574;11.170;2023-04-15T09:54:07;7.40;99.90
13409;DHT22;6775;49.574;11.170;2023-04-15T09:56:35;7.40;99.90
13409;DHT22;6775;49.574;11.170;2023-04-15T09:59:04;7.50;99.90
13409;DHT22;6775;49.574;11.170;2023-04-15T10:01:32;7.50;99.90
13409;DHT22;6775;49.574;11.170;2023-04-15T10:04:02;7.50;99.90
13409;DHT22;6775;49.574;11.170;2023-04-15T10:06:31;7.60;99.90
13409;DHT22;6775;49.574;11.170;2023-04-15T10:09:00;7.60;99.90
13409;DHT22;6775;49.574;11.170;2023-04-15T10:11:30;7.70;99.90
13409;DHT22;6775;49.574;11.170;2023-04-15T10:14:00;7.80;99.90
13409;DHT22;6775;49.574;11.170;2023-04-15T10:16:31;7.80;99.90
13409;DHT22;6775;49.574;11.170;2023-04-15T10:19:01;7.80;99.90
13409;DHT22;6775;49.574;11.170;2023-04-15T10:21:29;7.80;99.90
13409;DHT22;6775;49.574;11.170;2023-04-15T10:23:57;7.80;99.90
13409;DHT22;6775;49.574;11.170;2023-04-15T10:26:27;7.90;99.90
13409;DHT22;6775;49.574;11.170;2023-04-15T10:28:58;8.00;99.90
13409;DHT22;6775;49.574;11.170;2023-04-15T10:31:27;8.10;99.90
13409;DHT22;6775;49.574;11.170;2023-04-15T10:33:56;8.30;99.90
13409;DHT22;6775;49.574;11.170;2023-04-15T10:36:24;8.30;99.90
13409;DHT22;6775;49.574;11.170;2023-04-15T10:38:53;8.40;99.90
13409;DHT22;6775;49.574;11.170;2023-04-15T10:41:22;8.40;99.90
13409;DHT22;6775;49.574;11.170;2023-04-15T10:43:52;8.40;99.90
13409;DHT22;6775;49.574;11.170;2023-04-15T10:46:34;8.50;99.90
13409;DHT22;6775;49.574;11.170;2023-04-15T10:49:07;8.50;99.90
13409;DHT22;6775;49.574;11.170;2023-04-15T10:51:38;8.50;99.90
13409;DHT22;6775;49.574;11.170;2023-04-15T10:54:11;8.50;99.90
13409;DHT22;6775;49.574;11.170;2023-04-15T10:56:41;8.50;99.90
13409;DHT22;6775;49.574;11.170;2023-04-15T10:59:09;8.50;99.90
13409;DHT22;6775;49.574;11.170;2023-04-15T11:01:52;8.40;99.90
13409;DHT22;6775;49.574;11.170;2023-04-15T11:04:50;8.40;99.90
13409;DHT22;6775;49.574;11.170;2023-04-15T11:07:37;8.40;99.90
13409;DHT22;6775;49.574;11.170;2023-04-15T11:13:22;8.30;99.90
13409;DHT22;6775;49.574;11.170;2023-04-15T11:15:56;8.20;99.90
13409;DHT22;6775;49.574;11.170;2023-04-15T11:18:30;8.20;99.90
13409;DHT22;6775;49.574;11.170;2023-04-15T11:21:01;8.20;99.90
13409;DHT22;6775;49.574;11.170;2023-04-15T11:23:31;8.20;99.90
13409;DHT22;6775;49.574;11.170;2023-04-15T11:26:01;8.40;99.90
13409;DHT22;6775;49.574;11.170;2023-04-15T11:28:31;8.50;99.90
13409;DHT22;6775;49.574;11.170;2023-04-15T11:31:06;8.60;99.90
13409;DHT22;6775;49.574;11.170;2023-04-15T11:33:35;8.70;99.90
13409;DHT22;6775;49.574;11.170;2023-04-15T11:36:04;8.80;99.90
13409;DHT22;6775;49.574;11.170;2023-04-15T11:38:33;8.90;99.90
13409;DHT22;6775;49.574;11.170;2023-04-15T11:41:01;8.90;99.90
13409;DHT22;6775;49.574;11.170;2023-04-15T11:43:31;8.90;99.90
13409;DHT22;6775;49.574;11.170;2023-04-15T11:46:02;9.00;99.90
13409;DHT22;6775;49.574;11.170;2023-04-15T11:48:31;9.00;99.90
13409;DHT22;6775;49.574;11.170;2023-04-15T11:51:03;9.00;99.90
13409;DHT22;6775;49.574;11.170;2023-04-15T11:53:38;8.90;99.90
13409;DHT22;6775;49.574;11.170;2023-04-15T11:56:07;8.80;99.90
13409;DHT22;6775;49.574;11.170;2023-04-15T11:58:37;8.70;99.90
13409;DHT22;6775;49.574;11.170;2023-04-15T12:01:05;8.70;99.90
13409;DHT22;6775;49.574;11.170;2023-04-15T12:03:37;8.70;99.90
13409;DHT22;6775;49.574;11.170;2023-04-15T12:06:12;8.70;99.90
13409;DHT22;6775;49.574;11.170;2023-04-15T12:09:10;8.70;99.90
13409;DHT22;6775;49.574;11.170;2023-04-15T12:11:41;8.60;99.90
13409;DHT22;6775;49.574;11.170;2023-04-15T12:14:11;8.50;99.90
13409;DHT22;6775;49.574;11.170;2023-04-15T12:16:41;8.50;99.90
13409;DHT22;6775;49.574;11.170;2023-04-15T12:19:17;8.50;99.90
13409;DHT22;6775;49.574;11.170;2023-04-15T12:21:47;8.50;99.90
13409;DHT22;6775;49.574;11.170;2023-04-15T12:24:19;8.50;99.90
13409;DHT22;6775;49.574;11.170;2023-04-15T12:26:49;8.50;99.90
13409;DHT22;6775;49.574;11.170;2023-04-15T12:29:18;8.50;99.90
13409;DHT22;6775;49.574;11.170;2023-04-15T12:31:48;8.60;99.90
13409;DHT22;6775;49.574;11.170;2023-04-15T12:34:17;8.60;99.90
13409;DHT22;6775;49.574;11.170;2023-04-15T12:36:47;8.50;99.90
13409;DHT22;6775;49.574;11.170;2023-04-15T12:39:15;8.60;99.90
13409;DHT22;6775;49.574;11.170;2023-04-15T12:41:43;8.70;99.90
13409;DHT22;6775;49.574;11.170;2023-04-15T12:44:11;8.90;99.90
13409;DHT22;6775;49.574;11.170;2023-04-15T12:46:38;9.10;99.90
13409;DHT22;6775;49.574;11.170;2023-04-15T12:49:07;9.30;99.90
13409;DHT22;6775;49.574;11.170;2023-04-15T12:51:35;9.30;99.90
13409;DHT22;6775;49.574;11.170;2023-04-15T12:54:04;9.20;99.90
13409;DHT22;6775;49.574;11.170;2023-04-15T12:56:32;9.20;99.90
13409;DHT22;6775;49.574;11.170;2023-04-15T12:59:00;9.10;99.90
13409;DHT22;6775;49.574;11.170;2023-04-15T13:01:28;9.00;99.90
13409;DHT22;6775;49.574;11.170;2023-04-15T13:03:56;9.00;99.90
13409;DHT22;6775;49.574;11.170;2023-04-15T13:06:24;9.10;99.90
13409;DHT22;6775;49.574;11.170;2023-04-15T13:08:51;9.20;99.90
13409;DHT22;6775;49.574;11.170;2023-04-15T13:11:26;9.30;99.90
13409;DHT22;6775;49.574;11.170;2023-04-15T13:13:56;9.40;99.90
13409;DHT22;6775;49.574;11.170;2023-04-15T13:16:24;9.40;99.90
13409;DHT22;6775;49.574;11.170;2023-04-15T13:18:52;9.30;99.90
13409;DHT22;6775;49.574;11.170;2023-04-15T13:21:19;9.20;99.90
13409;DHT22;6775;49.574;11.170;2023-04-15T13:23:47;9.10;99.90
13409;DHT22;6775;49.574;11.170;2023-04-15T13:26:16;9.10;99.90
13409;DHT22;6775;49.574;11.170;2023-04-15T13:28:45;9.00;99.90
13409;DHT22;6775;49.574;11.170;2023-04-15T13:31:13;8.90;99.90
13409;DHT22;6775;49.574;11.170;2023-04-15T13:33:41;8.80;99.90
13409;DHT22;6775;49.574;11.170;2023-04-15T13:36:09;8.80;99.90
13409;DHT22;6775;49.574;11.170;2023-04-15T13:38:37;8.70;99.90
13409;DHT22;6775;49.574;11.170;2023-04-15T13:41:05;8.60;99.90
13409;DHT22;6775;49.574;11.170;2023-04-15T13:43:32;8.60;99.90
13409;DHT22;6775;49.574;11.170;2023-04-15T13:46:02;8.60;99.90
13409;DHT22;6775;49.574;11.170;2023-04-15T13:48:30;8.60;99.90
13409;DHT22;6775;49.574;11.170;2023-04-15T13:50:57;8.60;99.90
13409;DHT22;6775;49.574;11.170;2023-04-15T13:53:25;8.60;99.90
13409;DHT22;6775;49.574;11.170;2023-04-15T13:56:04;8.70;99.90
13409;DHT22;6775;49.574;11.170;2023-04-15T13:58:32;8.70;99.90
13409;DHT22;6775;49.574;11.170;2023-04-15T14:01:02;8.70;99.90
13409;DHT22;6775;49.574;11.170;2023-04-15T14:03:31;8.70;99.90
13409;DHT22;6775;49.574;11.170;2023-04-15T14:06:00;8.70;99.90
13409;DHT22;6775;49.574;11.170;2023-04-15T14:08:29;8.70;99.90
13409;DHT22;6775;49.574;11.170;2023-04-15T14:10:57;8.70;99.90
13409;DHT22;6775;49.574;11.170;2023-04-15T14:13:24;8.70;99.90
13409;DHT22;6775;49.574;11.170;2023-04-15T14:15:52;8.70;99.90
13409;DHT22;6775;49.574;11.170;2023-04-15T14:18:21;8.70;99.90
13409;DHT22;6775;49.574;11.170;2023-04-15T14:20:49;8.70;99.90
13409;DHT22;6775;49.574;11.170;2023-04-15T14:23:17;8.80;99.90
13409;DHT22;6775;49.574;11.170;2023-04-15T14:25:45;8.80;99.90
13409;DHT22;6775;49.574;11.170;2023-04-15T14:28:14;8.80;99.90
13409;DHT22;6775;49.574;11.170;2023-04-15T14:30:42;8.80;99.90
13409;DHT22;6775;49.574;11.170;2023-04-15T14:33:10;8.70;99.90
13409;DHT22;6775;49.574;11.170;2023-04-15T14:35:39;8.70;99.90
13409;DHT22;6775;49.574;11.170;2023-04-15T14:38:07;8.70;99.90
13409;DHT22;6775;49.574;11.170;2023-04-15T14:40:37;8.70;99.90
13409;DHT22;6775;49.574;11.170;2023-04-15T14:43:05;8.70;99.90
13409;DHT22;6775;49.574;11.170;2023-04-15T14:45:33;8.70;99.90
13409;DHT22;6775;49.574;11.170;2023-04-15T14:48:02;8.70;99.90
13409;DHT22;6775;49.574;11.170;2023-04-15T14:50:30;8.70;99.90
13409;DHT22;6775;49.574;11.170;2023-04-15T14:52:59;8.70;99.90
13409;DHT22;6775;49.574;11.170;2023-04-15T14:55:27;8.70;99.90
13409;DHT22;6775;49.574;11.170;2023-04-15T14:57:54;8.80;99.90
13409;DHT22;6775;49.574;11.170;2023-04-15T15:00:22;8.80;99.90
13409;DHT22;6775;49.574;11.170;2023-04-15T15:02:50;8.80;99.90
13409;DHT22;6775;49.574;11.170;2023-04-15T15:05:18;8.80;99.90
13409;DHT22;6775;49.574;11.170;2023-04-15T15:07:46;8.80;99.90
13409;DHT22;6775;49.574;11.170;2023-04-15T15:10:15;8.70;99.90
13409;DHT22;6775;49.574;11.170;2023-04-15T15:13:04;8.70;99.90
13409;DHT22;6775;49.574;11.170;2023-04-15T15:15:32;8.60;99.90
13409;DHT22;6775;49.574;11.170;2023-04-15T15:18:00;8.60;99.90
13409;DHT22;6775;49.574;11.170;2023-04-15T15:20:29;8.60;99.90
13409;DHT22;6775;49.574;11.170;2023-04-15T15:22:58;8.60;99.90
13409;DHT22;6775;49.574;11.170;2023-04-15T15:25:27;8.60;99.90
13409;DHT22;6775;49.574;11.170;2023-04-15T15:27:56;8.60;99.90
13409;DHT22;6775;49.574;11.170;2023-04-15T15:30:24;8.60;99.90
13409;DHT22;6775;49.574;11.170;2023-04-15T15:32:52;8.60;99.90
13409;DHT22;6775;49.574;11.170;2023-04-15T15:35:20;8.50;99.90
13409;DHT22;6775;49.574;11.170;2023-04-15T15:37:49;8.50;99.90
13409;DHT22;6775;49.574;11.170;2023-04-15T15:40:17;8.50;99.90
13409;DHT22;6775;49.574;11.170;2023-04-15T15:42:46;8.50;99.90
13409;DHT22;6775;49.574;11.170;2023-04-15T15:45:15;8.50;99.90
13409;DHT22;6775;49.574;11.170;2023-04-15T15:47:43;8.50;99.90
13409;DHT22;6775;49.574;11.170;2023-04-15T15:50:12;8.50;99.90
13409;DHT22;6775;49.574;11.170;2023-04-15T15:52:40;8.50;99.90
13409;DHT22;6775;49.574;11.170;2023-04-15T15:55:08;8.60;99.90
13409;DHT22;6775;49.574;11.170;2023-04-15T15:57:36;8.60;99.90
13409;DHT22;6775;49.574;11.170;2023-04-15T16:00:07;8.60;99.90